createdAt,value
2018-08-04T00:00:17.345Z,77.20
2018-08-04T00:02:46.486Z,77.30
2018-08-04T00:05:15.649Z,77.10
2018-08-04T00:07:44.805Z,76.40
2018-08-04T00:10:19.454Z,75.70
2018-08-04T00:12:49.791Z,75.30
2018-08-04T00:15:18.997Z,75.30
2018-08-04T00:20:17.979Z,75.60
2018-08-04T00:22:47.434Z,75.70
2018-08-04T00:25:16.523Z,75.60
2018-08-04T00:27:45.634Z,75.60
2018-08-04T00:30:15.397Z,75.80
2018-08-04T00:32:44.567Z,75.80
2018-08-04T00:35:13.717Z,76.10
2018-08-04T00:37:42.894Z,75.90
2018-08-04T00:40:12.886Z,76.10
2018-08-04T00:42:43.122Z,75.40
2018-08-04T00:45:12.206Z,75.60
2018-08-04T00:47:41.360Z,75.80
2018-08-04T00:50:10.927Z,75.40
2018-08-04T00:52:40.088Z,74.90
2018-08-04T00:55:09.281Z,75.10
2018-08-04T00:57:38.367Z,75.40
2018-08-04T01:00:07.617Z,75.10
2018-08-04T01:02:36.750Z,75.70
2018-08-04T01:05:05.928Z,76.10
2018-08-04T01:07:35.178Z,76.50
2018-08-04T01:10:06.241Z,76.50
2018-08-04T01:12:35.393Z,76.40
2018-08-04T01:15:04.669Z,76.00
2018-08-04T01:17:33.808Z,76.20
2018-08-04T01:20:04.865Z,76.50
2018-08-04T01:22:35.414Z,76.20
2018-08-04T01:25:05.706Z,75.90
2018-08-04T01:27:34.855Z,76.30
2018-08-04T01:30:04.883Z,76.50
2018-08-04T01:32:34.004Z,76.40
2018-08-04T01:35:03.157Z,76.60
2018-08-04T01:37:32.297Z,77.50
2018-08-04T01:40:01.439Z,77.80
2018-08-04T01:42:30.554Z,78.50
2018-08-04T01:44:59.641Z,78.60
2018-08-04T01:49:57.437Z,78.70
2018-08-04T01:52:26.577Z,78.90
2018-08-04T01:54:56.347Z,78.30
2018-08-04T01:57:25.467Z,78.70
2018-08-04T01:59:54.581Z,79.20
2018-08-04T02:02:23.709Z,79.80
2018-08-04T02:04:52.857Z,80.50
2018-08-04T02:07:22.022Z,80.30
2018-08-04T02:09:51.130Z,80.30
2018-08-04T02:12:20.221Z,80.30
2018-08-04T02:14:49.346Z,80.50
2018-08-04T02:17:18.477Z,80.10
2018-08-04T02:19:47.576Z,79.80
2018-08-04T02:22:16.726Z,79.90
2018-08-04T02:24:45.862Z,79.60
2018-08-04T02:27:15.032Z,79.30
2018-08-04T02:29:44.132Z,79.10
2018-08-04T02:32:13.251Z,78.90
2018-08-04T02:34:42.353Z,78.80
2018-08-04T02:37:11.472Z,78.80
2018-08-04T02:39:40.569Z,78.70
2018-08-04T02:42:09.689Z,78.70
2018-08-04T02:44:38.915Z,78.30
2018-08-04T02:47:08.050Z,78.90
2018-08-04T02:49:37.281Z,78.80
2018-08-04T02:52:06.421Z,79.00
2018-08-04T02:54:35.522Z,78.90
2018-08-04T02:57:04.706Z,78.70
2018-08-04T02:59:33.815Z,78.70
2018-08-04T03:02:02.951Z,78.50
2018-08-04T03:04:32.073Z,79.00
2018-08-04T03:07:01.207Z,79.70
2018-08-04T03:09:30.343Z,80.10
2018-08-04T03:14:28.167Z,81.70
2018-08-04T03:16:57.273Z,82.20
2018-08-04T03:19:26.423Z,82.10
2018-08-04T03:21:55.541Z,82.70
2018-08-04T03:24:24.681Z,82.40
2018-08-04T03:26:53.848Z,82.40
2018-08-04T03:29:22.984Z,82.50
2018-08-04T03:31:52.102Z,82.40
2018-08-04T03:34:21.252Z,82.10
2018-08-04T03:36:50.351Z,82.20
2018-08-04T03:39:19.491Z,81.90
2018-08-04T03:41:48.634Z,81.90
2018-08-04T03:44:17.733Z,81.50
2018-08-04T03:46:46.853Z,81.30
2018-08-04T03:51:45.049Z,81.80
2018-08-04T03:54:14.178Z,82.40
2018-08-04T03:56:43.290Z,82.80
2018-08-04T03:59:12.442Z,83.00
2018-08-04T04:01:41.614Z,83.80
2018-08-04T04:04:10.797Z,84.60
2018-08-04T04:06:39.975Z,85.50
2018-08-04T04:09:10.242Z,85.50
2018-08-04T04:11:39.426Z,85.40
2018-08-04T04:14:08.613Z,85.50
2018-08-04T04:16:37.754Z,85.90
2018-08-04T04:21:35.615Z,84.60
2018-08-04T04:24:04.739Z,83.60
2018-08-04T04:26:34.098Z,83.40
2018-08-04T04:29:03.253Z,83.10
2018-08-04T04:31:32.363Z,82.70
2018-08-04T04:34:01.681Z,82.60
2018-08-04T04:36:30.767Z,82.80
2018-08-04T04:38:59.968Z,82.90
2018-08-04T04:41:29.138Z,83.00
2018-08-04T04:43:58.232Z,83.70
2018-08-04T04:46:27.405Z,83.80
2018-08-04T04:48:56.562Z,84.60
2018-08-04T04:51:25.826Z,84.50
2018-08-04T04:53:54.934Z,85.10
2018-08-04T04:56:24.058Z,85.80
2018-08-04T04:58:53.171Z,86.20
2018-08-04T05:01:23.291Z,85.30
2018-08-04T05:03:52.546Z,85.70
2018-08-04T05:06:21.713Z,86.10
2018-08-04T05:08:51.122Z,85.70
2018-08-04T05:11:20.657Z,85.50
2018-08-04T05:13:49.818Z,85.40
2018-08-04T05:16:18.974Z,85.60
2018-08-04T05:18:48.116Z,85.80
2018-08-04T05:21:18.133Z,85.60
2018-08-04T05:23:47.641Z,84.70
2018-08-04T05:26:16.784Z,83.50
2018-08-04T05:28:45.933Z,83.40
2018-08-04T05:31:15.128Z,82.90
2018-08-04T05:33:44.261Z,83.30
2018-08-04T05:36:13.387Z,85.20
2018-08-04T05:38:42.531Z,85.70
2018-08-04T05:41:11.708Z,85.50
2018-08-04T05:43:40.842Z,85.30
2018-08-04T05:46:09.998Z,83.20
2018-08-04T05:48:39.120Z,83.00
2018-08-04T05:51:08.237Z,82.10
2018-08-04T05:53:37.387Z,82.00
2018-08-04T05:56:06.550Z,81.10
2018-08-04T05:58:35.723Z,81.40
2018-08-04T06:01:04.906Z,81.30
2018-08-04T06:03:34.154Z,80.80
2018-08-04T06:06:03.297Z,81.10
2018-08-04T06:08:32.425Z,80.80
2018-08-04T06:11:01.590Z,80.40
2018-08-04T06:13:30.728Z,80.30
2018-08-04T06:15:59.833Z,80.00
2018-08-04T06:18:28.938Z,79.90
2018-08-04T06:20:58.089Z,82.40
2018-08-04T06:23:27.230Z,83.60
2018-08-04T06:25:56.570Z,84.50
2018-08-04T06:28:25.781Z,84.60
2018-08-04T06:30:55.034Z,85.00
2018-08-04T06:33:24.168Z,84.80
2018-08-04T06:35:53.330Z,84.00
2018-08-04T06:38:22.493Z,82.20
2018-08-04T06:40:51.662Z,80.90
2018-08-04T06:43:20.803Z,80.30
2018-08-04T06:45:50.006Z,79.70
2018-08-04T06:48:19.146Z,79.50
2018-08-04T06:50:48.337Z,79.10
2018-08-04T06:53:17.507Z,77.90
2018-08-04T06:55:46.689Z,76.30
2018-08-04T06:58:15.828Z,74.60
2018-08-04T07:00:45.026Z,73.00
2018-08-04T07:03:14.151Z,71.90
2018-08-04T07:05:43.372Z,70.40
2018-08-04T07:10:47.731Z,67.00
2018-08-04T07:13:16.867Z,66.10
2018-08-04T07:15:46.003Z,66.20
2018-08-04T07:18:15.153Z,64.70
2018-08-04T07:20:44.367Z,64.30
2018-08-04T07:23:13.542Z,62.00
2018-08-04T07:25:42.691Z,62.10
2018-08-04T07:28:11.830Z,59.90
2018-08-04T07:33:09.729Z,57.80
2018-08-04T07:35:38.881Z,56.90
2018-08-04T07:38:07.997Z,57.60
2018-08-04T07:40:37.129Z,56.50
2018-08-04T07:43:06.288Z,54.90
2018-08-04T07:45:35.410Z,53.30
2018-08-04T07:48:04.586Z,52.10
2018-08-04T07:50:33.779Z,51.60
2018-08-04T07:53:02.906Z,51.70
2018-08-04T07:55:32.046Z,51.80
2018-08-04T07:58:01.201Z,51.30
2018-08-04T08:00:30.317Z,50.20
2018-08-04T08:02:59.461Z,52.00
2018-08-04T08:05:28.619Z,52.00
2018-08-04T08:07:57.753Z,51.00
2018-08-04T08:10:27.021Z,49.30
2018-08-04T08:12:56.183Z,49.20
2018-08-04T08:15:25.298Z,48.00
2018-08-04T08:17:54.647Z,48.20
2018-08-04T08:20:23.738Z,48.10
2018-08-04T08:22:53.126Z,47.50
2018-08-04T08:25:22.278Z,47.50
2018-08-04T08:27:51.442Z,47.30
2018-08-04T08:30:20.578Z,46.30
2018-08-04T08:32:49.940Z,45.00
2018-08-04T08:35:19.094Z,44.90
2018-08-04T08:37:48.297Z,44.30
2018-08-04T08:40:17.548Z,45.30
2018-08-04T08:42:46.684Z,44.90
2018-08-04T08:45:15.839Z,45.90
2018-08-04T08:47:44.990Z,47.00
2018-08-04T08:50:14.105Z,47.70
2018-08-04T08:52:43.283Z,47.20
2018-08-04T08:55:12.409Z,47.30
2018-08-04T08:57:41.553Z,48.40
2018-08-04T09:00:11.633Z,50.20
2018-08-04T09:02:40.886Z,52.60
2018-08-04T09:05:10.757Z,55.10
2018-08-04T09:07:40.345Z,56.10
2018-08-04T09:10:12.457Z,56.80
2018-08-04T09:12:42.165Z,58.30
2018-08-04T09:15:11.303Z,58.90
2018-08-04T09:17:40.497Z,59.30
2018-08-04T09:20:10.690Z,59.40
2018-08-04T09:22:40.106Z,59.30
2018-08-04T09:25:09.640Z,59.20
2018-08-04T09:27:39.789Z,59.10
2018-08-04T09:30:11.589Z,59.50
2018-08-04T09:32:41.891Z,59.50
2018-08-04T09:35:11.494Z,59.60
2018-08-04T09:37:40.665Z,59.00
2018-08-04T09:40:12.327Z,59.20
2018-08-04T09:42:41.803Z,59.50
2018-08-04T09:45:11.061Z,59.90
2018-08-04T09:47:40.973Z,59.80
2018-08-04T09:50:11.831Z,60.00
2018-08-04T09:52:42.562Z,59.90
2018-08-04T09:55:12.112Z,59.90
2018-08-04T09:57:42.394Z,59.00
2018-08-04T10:00:18.051Z,58.20
2018-08-04T10:02:47.354Z,58.90
2018-08-04T10:05:16.565Z,58.70
2018-08-04T10:07:45.643Z,58.80
2018-08-04T10:10:14.813Z,59.30
2018-08-04T10:12:44.067Z,59.40
2018-08-04T10:15:13.192Z,58.80
2018-08-04T10:17:42.360Z,58.60
2018-08-04T10:20:12.316Z,58.00
2018-08-04T10:22:41.484Z,57.00
2018-08-04T10:25:10.706Z,56.40
2018-08-04T10:27:39.934Z,55.50
2018-08-04T10:30:11.056Z,55.90
2018-08-04T10:32:40.398Z,55.60
2018-08-04T10:35:09.725Z,54.60
2018-08-04T10:37:39.122Z,53.80
2018-08-04T10:40:08.408Z,53.90
2018-08-04T10:42:37.602Z,54.60
2018-08-04T10:45:07.121Z,54.10
2018-08-04T10:47:36.333Z,52.80
2018-08-04T10:50:05.873Z,52.40
2018-08-04T10:52:35.180Z,51.60
2018-08-04T10:55:04.440Z,51.60
2018-08-04T10:57:33.617Z,51.00
2018-08-04T11:00:02.787Z,50.60
2018-08-04T11:02:31.969Z,50.50
2018-08-04T11:05:01.146Z,50.40
2018-08-04T11:07:30.431Z,50.10
2018-08-04T11:10:00.040Z,50.10
2018-08-04T11:12:29.228Z,46.40
2018-08-04T11:14:58.329Z,45.60
2018-08-04T11:17:27.495Z,46.00
2018-08-04T11:19:57.692Z,46.00
2018-08-04T11:22:26.809Z,46.20
2018-08-04T11:24:55.952Z,44.60
2018-08-04T11:27:25.090Z,43.40
2018-08-04T11:29:54.265Z,43.10
2018-08-04T11:34:52.135Z,40.80
2018-08-04T11:37:21.332Z,40.50
2018-08-04T11:39:50.481Z,40.30
2018-08-04T11:42:19.621Z,41.00
2018-08-04T11:44:48.772Z,40.70
2018-08-04T11:47:17.949Z,41.20
2018-08-04T11:49:47.723Z,41.20
2018-08-04T11:52:16.896Z,38.80
2018-08-04T11:54:46.077Z,39.80
2018-08-04T11:57:15.268Z,40.20
2018-08-04T11:59:44.443Z,40.70
2018-08-04T12:02:13.602Z,41.30
2018-08-04T12:04:42.816Z,41.80
2018-08-04T12:07:12.017Z,41.40
2018-08-04T12:09:41.194Z,40.70
2018-08-04T12:12:10.325Z,40.80
2018-08-04T12:17:08.198Z,41.00
2018-08-04T12:19:37.357Z,40.80
2018-08-04T12:22:07.151Z,40.00
2018-08-04T12:24:36.289Z,40.00
2018-08-04T12:27:05.791Z,40.40
2018-08-04T12:29:35.010Z,40.50
2018-08-04T12:32:04.205Z,39.10
2018-08-04T12:34:33.382Z,38.60
2018-08-04T12:37:02.559Z,38.00
2018-08-04T12:39:31.749Z,38.20
2018-08-04T12:42:00.875Z,38.50
2018-08-04T12:44:30.004Z,38.90
2018-08-04T12:46:59.185Z,38.20
2018-08-04T12:49:28.329Z,38.40
2018-08-04T12:51:57.496Z,39.00
2018-08-04T12:54:26.822Z,39.10
2018-08-04T12:56:55.917Z,39.00
2018-08-04T12:59:25.095Z,38.70
2018-08-04T13:01:54.237Z,37.80
2018-08-04T13:04:23.437Z,37.80
2018-08-04T13:06:52.652Z,38.00
2018-08-04T13:09:21.807Z,37.70
2018-08-04T13:11:50.971Z,36.20
2018-08-04T13:14:20.142Z,35.80
2018-08-04T13:16:49.279Z,36.10
2018-08-04T13:19:18.451Z,36.30
2018-08-04T13:21:47.570Z,36.10
2018-08-04T13:26:45.511Z,35.70
2018-08-04T13:29:15.036Z,36.00
2018-08-04T13:31:44.164Z,35.90
2018-08-04T13:34:13.318Z,36.00
2018-08-04T13:36:42.624Z,36.40
2018-08-04T13:39:11.800Z,36.40
2018-08-04T13:41:41.047Z,36.20
2018-08-04T13:44:10.237Z,36.10
2018-08-04T13:49:08.481Z,35.30
2018-08-04T13:51:37.722Z,35.20
2018-08-04T13:54:07.145Z,34.90
2018-08-04T13:56:36.400Z,34.80
2018-08-04T13:59:05.684Z,35.60
2018-08-04T14:01:34.942Z,35.60
2018-08-04T14:04:04.171Z,35.70
2018-08-04T14:06:33.294Z,36.10
2018-08-04T14:09:02.511Z,35.80
2018-08-04T14:11:31.660Z,35.70
2018-08-04T14:14:00.905Z,36.20
2018-08-04T14:16:30.033Z,36.30
2018-08-04T14:18:59.272Z,36.00
2018-08-04T14:21:28.724Z,36.20
2018-08-04T14:23:58.229Z,36.20
2018-08-04T14:26:27.416Z,36.40
2018-08-04T14:28:56.643Z,36.90
2018-08-04T14:31:25.839Z,37.30
2018-08-04T14:33:55.123Z,37.30
2018-08-04T14:36:24.332Z,37.80
2018-08-04T14:38:53.474Z,38.50
2018-08-04T14:41:22.678Z,38.60
2018-08-04T14:43:51.844Z,39.00
2018-08-04T14:46:21.051Z,39.60
2018-08-04T14:48:50.176Z,38.90
2018-08-04T14:51:19.421Z,39.00
2018-08-04T14:53:48.628Z,39.00
2018-08-04T14:56:17.801Z,39.20
2018-08-04T14:58:47.005Z,39.80
2018-08-04T15:01:16.154Z,40.10
2018-08-04T15:03:45.307Z,40.40
2018-08-04T15:06:14.462Z,40.10
2018-08-04T15:08:43.647Z,39.50
2018-08-04T15:11:12.917Z,40.20
2018-08-04T15:13:42.173Z,40.80
2018-08-04T15:16:11.378Z,40.50
2018-08-04T15:18:40.527Z,40.20
2018-08-04T15:21:09.762Z,40.50
2018-08-04T15:23:38.961Z,41.60
2018-08-04T15:26:08.193Z,41.10
2018-08-04T15:28:37.402Z,41.10
2018-08-04T15:31:06.703Z,40.90
2018-08-04T15:33:35.855Z,40.90
2018-08-04T15:36:05.273Z,41.20
2018-08-04T15:38:34.423Z,40.70
2018-08-04T15:41:03.831Z,41.10
2018-08-04T15:43:33.014Z,40.10
2018-08-04T15:46:02.251Z,40.50
2018-08-04T15:48:31.392Z,40.80
2018-08-04T15:51:00.588Z,41.10
2018-08-04T15:53:29.785Z,41.50
2018-08-04T15:55:58.989Z,41.70
2018-08-04T15:58:28.309Z,41.70
2018-08-04T16:00:57.676Z,41.60
2018-08-04T16:03:26.875Z,41.70
2018-08-04T16:05:56.077Z,41.90
2018-08-04T16:08:25.346Z,42.00
2018-08-04T16:10:54.526Z,42.30
2018-08-04T16:13:23.698Z,42.50
2018-08-04T16:15:52.978Z,42.50
2018-08-04T16:18:22.165Z,45.30
2018-08-04T16:23:20.191Z,53.90
2018-08-04T16:25:49.484Z,51.70
2018-08-04T16:28:18.621Z,51.00
2018-08-04T16:30:47.914Z,50.70
2018-08-04T16:33:17.063Z,49.70
2018-08-04T16:35:46.199Z,52.50
2018-08-04T16:38:15.476Z,48.00
2018-08-04T16:40:45.522Z,47.40
2018-08-04T16:43:14.679Z,46.50
2018-08-04T16:45:43.836Z,46.20
2018-08-04T16:50:42.409Z,45.90
2018-08-04T16:53:11.557Z,45.70
2018-08-04T16:55:40.674Z,45.70
2018-08-04T16:58:09.889Z,45.50
2018-08-04T17:00:39.286Z,44.40
2018-08-04T17:03:08.499Z,44.30
2018-08-04T17:05:37.687Z,44.00
2018-08-04T17:08:06.894Z,43.90
2018-08-04T17:10:36.145Z,43.60
2018-08-04T17:13:05.498Z,43.80
2018-08-04T17:15:34.632Z,43.50
2018-08-04T17:18:03.950Z,43.40
2018-08-04T17:20:33.113Z,45.90
2018-08-04T17:23:02.398Z,44.00
2018-08-04T17:25:31.566Z,44.10
2018-08-04T17:28:00.726Z,44.00
2018-08-04T17:30:29.897Z,43.50
2018-08-04T17:32:59.077Z,44.00
2018-08-04T17:35:28.252Z,43.50
2018-08-04T17:37:57.443Z,43.70
2018-08-04T17:40:26.715Z,43.30
2018-08-04T17:42:56.256Z,44.00
2018-08-04T17:45:25.430Z,43.20
2018-08-04T17:47:54.654Z,43.10
2018-08-04T17:50:23.830Z,42.90
2018-08-04T17:52:52.977Z,43.40
2018-08-04T17:55:22.130Z,43.50
2018-08-04T17:57:51.283Z,43.60
2018-08-04T18:00:20.417Z,44.60
2018-08-04T18:02:49.587Z,44.00
2018-08-04T18:05:18.703Z,50.70
2018-08-04T18:07:47.893Z,45.80
2018-08-04T18:10:17.039Z,45.30
2018-08-04T18:12:46.232Z,45.90
2018-08-04T18:15:15.346Z,45.70
2018-08-04T18:17:44.477Z,47.10
2018-08-04T18:20:13.679Z,48.40
2018-08-04T18:22:42.877Z,47.20
2018-08-04T18:27:40.712Z,48.30
2018-08-04T18:30:09.866Z,47.90
2018-08-04T18:32:39.064Z,48.00
2018-08-04T18:35:08.189Z,49.60
2018-08-04T18:37:37.375Z,48.40
2018-08-04T18:40:06.542Z,48.60
2018-08-04T18:42:35.689Z,50.00
2018-08-04T18:45:05.658Z,48.90
2018-08-04T18:47:35.235Z,49.10
2018-08-04T18:50:04.531Z,49.30
2018-08-04T18:52:33.648Z,49.80
2018-08-04T18:55:02.835Z,51.70
2018-08-04T18:57:31.974Z,51.50
2018-08-04T19:00:01.107Z,51.80
2018-08-04T19:02:30.247Z,51.50
2018-08-04T19:04:59.429Z,52.40
2018-08-04T19:07:28.558Z,52.20
2018-08-04T19:09:57.697Z,52.30
2018-08-04T19:12:26.832Z,52.70
2018-08-04T19:14:56.048Z,52.70
2018-08-04T19:19:53.939Z,53.50
2018-08-04T19:22:23.106Z,53.70
2018-08-04T19:24:52.252Z,54.10
2018-08-04T19:27:21.366Z,53.90
2018-08-04T19:29:50.477Z,54.10
2018-08-04T19:32:19.626Z,54.50
2018-08-04T19:34:48.756Z,54.50
2018-08-04T19:37:17.837Z,55.40
2018-08-04T19:39:47.011Z,55.40
2018-08-04T19:42:16.167Z,55.40
2018-08-04T19:44:45.281Z,55.60
2018-08-04T19:47:14.534Z,56.00
2018-08-04T19:49:43.736Z,55.80
2018-08-04T19:52:13.014Z,56.40
2018-08-04T19:54:42.140Z,56.30
2018-08-04T19:57:11.246Z,56.00
2018-08-04T19:59:40.411Z,56.00
2018-08-04T20:02:09.541Z,56.90
2018-08-04T20:04:39.314Z,56.70
2018-08-04T20:07:08.434Z,56.50
2018-08-04T20:09:37.580Z,57.30
2018-08-04T20:12:06.981Z,57.40
2018-08-04T20:14:36.143Z,57.40
2018-08-04T20:17:06.166Z,57.70
2018-08-04T20:19:35.493Z,58.00
2018-08-04T20:22:09.339Z,58.00
2018-08-04T20:24:38.622Z,59.20
2018-08-04T20:27:07.723Z,58.30
2018-08-04T20:29:36.929Z,58.90
2018-08-04T20:32:06.402Z,58.80
2018-08-04T20:37:04.270Z,59.40
2018-08-04T20:39:33.493Z,59.10
2018-08-04T20:42:02.952Z,59.50
2018-08-04T20:44:32.079Z,59.20
2018-08-04T20:47:01.193Z,58.70
2018-08-04T20:49:30.340Z,59.10
2018-08-04T20:51:59.457Z,59.40
2018-08-04T20:54:28.643Z,59.30
2018-08-04T20:56:58.047Z,60.20
2018-08-04T20:59:27.204Z,59.80
2018-08-04T21:02:01.713Z,59.90
2018-08-04T21:04:32.033Z,60.00
2018-08-04T21:07:01.702Z,60.30
2018-08-04T21:09:32.226Z,60.60
2018-08-04T21:12:01.429Z,60.80
2018-08-04T21:14:30.951Z,61.20
2018-08-04T21:17:00.424Z,61.30
2018-08-04T21:19:29.604Z,61.60
2018-08-04T21:21:58.798Z,61.80
2018-08-04T21:24:27.941Z,61.80
2018-08-04T21:26:57.075Z,62.20
2018-08-04T21:29:26.266Z,62.10
2018-08-04T21:31:55.686Z,62.30
2018-08-04T21:34:24.857Z,62.40
2018-08-04T21:36:54.016Z,62.60
2018-08-04T21:39:23.140Z,62.50
2018-08-04T21:41:52.326Z,62.80
2018-08-04T21:44:21.442Z,62.70
2018-08-04T21:46:51.538Z,62.80
2018-08-04T21:49:21.213Z,63.30
2018-08-04T21:51:51.050Z,63.60
2018-08-04T21:54:20.343Z,63.70
2018-08-04T21:56:49.443Z,64.30
2018-08-04T21:59:18.621Z,64.40
2018-08-04T22:01:53.811Z,64.30
2018-08-04T22:04:27.658Z,64.00
2018-08-04T22:07:35.645Z,64.10
2018-08-04T22:10:04.847Z,64.30
2018-08-04T22:12:34.039Z,65.00
2018-08-04T22:15:03.696Z,65.00
2018-08-04T22:17:33.119Z,65.20
2018-08-04T22:20:02.255Z,65.40
2018-08-04T22:22:31.423Z,65.50
2018-08-04T22:25:00.541Z,65.50
2018-08-04T22:27:29.699Z,65.70
2018-08-04T22:29:58.920Z,66.30
2018-08-04T22:32:28.066Z,66.40
2018-08-04T22:34:57.171Z,66.50
2018-08-04T22:37:26.353Z,66.80
2018-08-04T22:39:55.516Z,66.50
2018-08-04T22:42:24.685Z,67.10
2018-08-04T22:45:01.976Z,67.40
2018-08-04T22:47:31.162Z,67.10
2018-08-04T22:50:00.301Z,67.70
2018-08-04T22:52:29.419Z,67.00
2018-08-04T22:54:58.774Z,67.00
2018-08-04T22:57:28.050Z,67.40
2018-08-04T22:59:57.261Z,67.20
2018-08-04T23:02:26.454Z,67.20
2018-08-04T23:04:55.588Z,66.80
2018-08-04T23:07:24.785Z,67.50
2018-08-04T23:09:53.965Z,67.60
2018-08-04T23:12:23.199Z,67.30
2018-08-04T23:14:52.365Z,67.10
2018-08-04T23:17:21.525Z,66.90
2018-08-04T23:19:50.753Z,67.40
2018-08-04T23:22:19.907Z,67.50
2018-08-04T23:24:49.082Z,67.20
2018-08-04T23:27:18.290Z,67.20
2018-08-04T23:29:47.411Z,67.20
2018-08-04T23:32:16.549Z,67.30
2018-08-04T23:34:45.724Z,67.30
2018-08-04T23:37:14.902Z,67.50
2018-08-04T23:39:44.034Z,67.60
2018-08-04T23:42:13.234Z,68.40
2018-08-04T23:44:42.400Z,68.80
2018-08-04T23:47:11.590Z,68.80
2018-08-04T23:49:40.721Z,68.60
2018-08-04T23:52:09.870Z,68.10
2018-08-04T23:54:39.037Z,68.20
2018-08-04T23:57:08.199Z,68.00
2018-08-04T23:59:37.443Z,67.20
